sensor_id;sensor_type;location;lat;lon;timestamp;pressure;altitude;pressure_sealevel;temperature;humidity
12722;BME280;6425;50.316;8.114;2023-03-21T00:00:00;992;;;8.7;73.3
12722;BME280;6425;50.316;8.114;2023-03-21T00:03:00;992;;;8.9;72.7
12722;BME280;6425;50.316;8.114;2023-03-21T00:06:03;992;;;9.1;71.3
12722;BME280;6425;50.316;8.114;2023-03-21T00:09:00;992;;;9.1;71
12722;BME280;6425;50.316;8.114;2023-03-21T00:12:00;992;;;9.3;69.6
12722;BME280;6425;50.316;8.114;2023-03-21T00:15:00;992;;;9.4;69.6
12722;BME280;6425;50.316;8.114;2023-03-21T00:18:00;992;;;9.4;68.9
12722;BME280;6425;50.316;8.114;2023-03-21T00:21:00;992;;;9.2;69.7
12722;BME280;6425;50.316;8.114;2023-03-21T00:24:00;992;;;9.4;69.1
12722;BME280;6425;50.316;8.114;2023-03-21T00:27:00;992;;;9.5;68.8
12722;BME280;6425;50.316;8.114;2023-03-21T00:30:00;992;;;9.4;68.6
12722;BME280;6425;50.316;8.114;2023-03-21T00:33:00;992;;;8.9;71
12722;BME280;6425;50.316;8.114;2023-03-21T00:36:00;992;;;8.7;73.3
12722;BME280;6425;50.316;8.114;2023-03-21T00:39:00;992;;;8.4;74.1
12722;BME280;6425;50.316;8.114;2023-03-21T00:42:00;992;;;8.6;73
12722;BME280;6425;50.316;8.114;2023-03-21T00:45:00;992;;;8.7;72.2
12722;BME280;6425;50.316;8.114;2023-03-21T00:48:00;992;;;8.9;71.3
12722;BME280;6425;50.316;8.114;2023-03-21T00:51:00;992;;;9.3;70.2
12722;BME280;6425;50.316;8.114;2023-03-21T00:54:00;992;;;9.5;69.2
12722;BME280;6425;50.316;8.114;2023-03-21T00:57:05;992;;;9.8;69
12722;BME280;6425;50.316;8.114;2023-03-21T01:00:00;991;;;9.9;67.6
12722;BME280;6425;50.316;8.114;2023-03-21T01:03:00;992;;;9.9;66.9
12722;BME280;6425;50.316;8.114;2023-03-21T01:06:00;992;;;9.1;70
12722;BME280;6425;50.316;8.114;2023-03-21T01:09:00;992;;;9.3;70.7
12722;BME280;6425;50.316;8.114;2023-03-21T01:12:00;992;;;9.5;68.9
12722;BME280;6425;50.316;8.114;2023-03-21T01:15:00;991;;;9.6;68.4
12722;BME280;6425;50.316;8.114;2023-03-21T01:18:00;991;;;9.9;67.1
12722;BME280;6425;50.316;8.114;2023-03-21T01:21:00;991;;;10.2;65.8
12722;BME280;6425;50.316;8.114;2023-03-21T01:24:00;991;;;10.3;65.3
12722;BME280;6425;50.316;8.114;2023-03-21T01:27:00;991;;;10.4;65
12722;BME280;6425;50.316;8.114;2023-03-21T01:30:00;991;;;10.2;65.4
12722;BME280;6425;50.316;8.114;2023-03-21T01:33:00;991;;;10.3;64.9
12722;BME280;6425;50.316;8.114;2023-03-21T01:36:00;991;;;10.3;65.3
12722;BME280;6425;50.316;8.114;2023-03-21T01:39:00;991;;;10.1;65.7
12722;BME280;6425;50.316;8.114;2023-03-21T01:42:00;991;;;9.8;66.3
12722;BME280;6425;50.316;8.114;2023-03-21T01:45:00;991;;;9.5;67.8
12722;BME280;6425;50.316;8.114;2023-03-21T01:48:00;991;;;9.4;68.4
12722;BME280;6425;50.316;8.114;2023-03-21T01:51:00;991;;;9.4;69.3
12722;BME280;6425;50.316;8.114;2023-03-21T01:54:00;991;;;9.5;68.9
12722;BME280;6425;50.316;8.114;2023-03-21T01:57:00;991;;;9.6;68.3
12722;BME280;6425;50.316;8.114;2023-03-21T02:00:00;991;;;9.7;68
12722;BME280;6425;50.316;8.114;2023-03-21T02:04:30;991;;;9.7;68.1
12722;BME280;6425;50.316;8.114;2023-03-21T02:06:00;991;;;9.7;68
12722;BME280;6425;50.316;8.114;2023-03-21T02:09:01;991;;;9.8;67.7
12722;BME280;6425;50.316;8.114;2023-03-21T02:12:00;991;;;9.9;67.3
12722;BME280;6425;50.316;8.114;2023-03-21T02:15:00;991;;;9.9;67.4
12722;BME280;6425;50.316;8.114;2023-03-21T02:18:02;991;;;10;67
12722;BME280;6425;50.316;8.114;2023-03-21T02:21:04;991;;;10.2;66.8
12722;BME280;6425;50.316;8.114;2023-03-21T02:24:09;991;;;10.3;66.2
12722;BME280;6425;50.316;8.114;2023-03-21T02:27:02;991;;;10.3;66.3
12722;BME280;6425;50.316;8.114;2023-03-21T02:31:06;991;;;9.9;67.2
12722;BME280;6425;50.316;8.114;2023-03-21T02:36:06;991;;;9.8;68.1
12722;BME280;6425;50.316;8.114;2023-03-21T02:39:00;991;;;9.9;68
12722;BME280;6425;50.316;8.114;2023-03-21T02:42:01;991;;;10;67.9
12722;BME280;6425;50.316;8.114;2023-03-21T02:45:00;991;;;9.8;68.6
12722;BME280;6425;50.316;8.114;2023-03-21T02:48:00;991;;;9.8;69
12722;BME280;6425;50.316;8.114;2023-03-21T02:51:00;991;;;9.8;69
12722;BME280;6425;50.316;8.114;2023-03-21T02:54:00;991;;;9.8;69.2
12722;BME280;6425;50.316;8.114;2023-03-21T02:57:00;991;;;9.9;69.1
12722;BME280;6425;50.316;8.114;2023-03-21T03:00:00;991;;;9.6;69.6
12722;BME280;6425;50.316;8.114;2023-03-21T03:03:00;991;;;9.3;71.2
12722;BME280;6425;50.316;8.114;2023-03-21T03:06:00;991;;;9.4;71.4
12722;BME280;6425;50.316;8.114;2023-03-21T03:09:04;991;;;9.5;70.9
12722;BME280;6425;50.316;8.114;2023-03-21T03:12:00;990;;;9.7;70.5
12722;BME280;6425;50.316;8.114;2023-03-21T03:15:02;990;;;9.7;70.1
12722;BME280;6425;50.316;8.114;2023-03-21T03:18:01;990;;;10;69.4
12722;BME280;6425;50.316;8.114;2023-03-21T03:21:01;991;;;9.8;69.7
12722;BME280;6425;50.316;8.114;2023-03-21T03:24:00;990;;;9.9;69.3
12722;BME280;6425;50.316;8.114;2023-03-21T03:27:01;990;;;9.9;69.3
12722;BME280;6425;50.316;8.114;2023-03-21T03:30:00;990;;;10;68.9
12722;BME280;6425;50.316;8.114;2023-03-21T03:33:00;990;;;10;68.7
12722;BME280;6425;50.316;8.114;2023-03-21T03:36:00;990;;;9.9;69.1
12722;BME280;6425;50.316;8.114;2023-03-21T03:39:00;990;;;9.8;69.4
12722;BME280;6425;50.316;8.114;2023-03-21T03:42:00;990;;;10;69.4
12722;BME280;6425;50.316;8.114;2023-03-21T03:45:00;990;;;9.9;69.8
12722;BME280;6425;50.316;8.114;2023-03-21T03:48:01;990;;;10;69.1
12722;BME280;6425;50.316;8.114;2023-03-21T03:51:00;990;;;10.2;68.5
12722;BME280;6425;50.316;8.114;2023-03-21T03:54:00;990;;;10.2;68.3
12722;BME280;6425;50.316;8.114;2023-03-21T03:57:00;990;;;10.2;68.4
12722;BME280;6425;50.316;8.114;2023-03-21T04:00:00;990;;;10.3;67.9
12722;BME280;6425;50.316;8.114;2023-03-21T04:03:00;990;;;10.5;67.6
12722;BME280;6425;50.316;8.114;2023-03-21T04:06:00;990;;;10.1;68.2
12722;BME280;6425;50.316;8.114;2023-03-21T04:09:00;990;;;10.1;69.1
12722;BME280;6425;50.316;8.114;2023-03-21T04:12:00;990;;;10;69.3
12722;BME280;6425;50.316;8.114;2023-03-21T04:15:00;990;;;9.7;70.4
12722;BME280;6425;50.316;8.114;2023-03-21T04:18:00;990;;;9.5;71.2
12722;BME280;6425;50.316;8.114;2023-03-21T04:21:00;990;;;9.3;72.5
12722;BME280;6425;50.316;8.114;2023-03-21T04:24:00;990;;;9.5;71.4
12722;BME280;6425;50.316;8.114;2023-03-21T04:27:00;990;;;9.4;71.4
12722;BME280;6425;50.316;8.114;2023-03-21T04:30:00;990;;;9.3;72.1
12722;BME280;6425;50.316;8.114;2023-03-21T04:33:00;990;;;9.4;71.9
12722;BME280;6425;50.316;8.114;2023-03-21T04:36:00;990;;;9.6;71
12722;BME280;6425;50.316;8.114;2023-03-21T04:39:00;990;;;9.7;70.4
12722;BME280;6425;50.316;8.114;2023-03-21T04:42:00;990;;;9.8;69.8
12722;BME280;6425;50.316;8.114;2023-03-21T04:45:00;990;;;9.6;70
12722;BME280;6425;50.316;8.114;2023-03-21T04:48:00;990;;;9.4;71.1
12722;BME280;6425;50.316;8.114;2023-03-21T04:51:00;990;;;9.3;71.1
12722;BME280;6425;50.316;8.114;2023-03-21T04:54:00;990;;;9.3;71.3
12722;BME280;6425;50.316;8.114;2023-03-21T04:57:00;990;;;9.4;71.4
12722;BME280;6425;50.316;8.114;2023-03-21T05:00:00;990;;;9.3;71.5
12722;BME280;6425;50.316;8.114;2023-03-21T05:03:00;990;;;9.3;71.5
12722;BME280;6425;50.316;8.114;2023-03-21T05:06:00;990;;;9.2;71.9
12722;BME280;6425;50.316;8.114;2023-03-21T05:09:00;990;;;9.2;72
12722;BME280;6425;50.316;8.114;2023-03-21T05:12:00;990;;;9.2;72.1
12722;BME280;6425;50.316;8.114;2023-03-21T05:15:00;990;;;8.9;72.7
12722;BME280;6425;50.316;8.114;2023-03-21T05:18:00;990;;;8.8;73.5
12722;BME280;6425;50.316;8.114;2023-03-21T05:21:00;990;;;8.8;73.6
12722;BME280;6425;50.316;8.114;2023-03-21T05:24:00;990;;;8.8;73.7
12722;BME280;6425;50.316;8.114;2023-03-21T05:27:00;990;;;8.9;73.8
12722;BME280;6425;50.316;8.114;2023-03-21T05:30:00;990;;;8.9;73.7
12722;BME280;6425;50.316;8.114;2023-03-21T05:33:00;990;;;8.8;74.1
12722;BME280;6425;50.316;8.114;2023-03-21T05:36:00;990;;;8.9;74.1
12722;BME280;6425;50.316;8.114;2023-03-21T05:39:00;990;;;8.9;74.3
12722;BME280;6425;50.316;8.114;2023-03-21T05:42:00;990;;;9;73.9
12722;BME280;6425;50.316;8.114;2023-03-21T05:45:00;990;;;8.9;74.4
12722;BME280;6425;50.316;8.114;2023-03-21T05:48:00;990;;;8.9;74.6
12722;BME280;6425;50.316;8.114;2023-03-21T05:51:00;990;;;8.9;74.6
12722;BME280;6425;50.316;8.114;2023-03-21T05:54:00;990;;;8.9;74.5
12722;BME280;6425;50.316;8.114;2023-03-21T05:57:00;990;;;9.2;74.1
12722;BME280;6425;50.316;8.114;2023-03-21T06:00:00;990;;;9.3;73.4
12722;BME280;6425;50.316;8.114;2023-03-21T06:03:00;990;;;9.5;73
12722;BME280;6425;50.316;8.114;2023-03-21T06:06:00;990;;;9.7;72.6
12722;BME280;6425;50.316;8.114;2023-03-21T06:09:00;990;;;9.3;72.9
12722;BME280;6425;50.316;8.114;2023-03-21T06:12:00;990;;;9.1;74.2
12722;BME280;6425;50.316;8.114;2023-03-21T06:15:00;990;;;8.6;77.3
12722;BME280;6425;50.316;8.114;2023-03-21T06:18:00;990;;;8.4;78.5
12722;BME280;6425;50.316;8.114;2023-03-21T06:21:00;990;;;9.1;77.1
12722;BME280;6425;50.316;8.114;2023-03-21T06:24:00;990;;;9.4;75.3
12722;BME280;6425;50.316;8.114;2023-03-21T06:27:00;990;;;8.7;77.3
12722;BME280;6425;50.316;8.114;2023-03-21T06:30:00;990;;;8.9;77.5
12722;BME280;6425;50.316;8.114;2023-03-21T06:33:00;990;;;8.6;78.8
12722;BME280;6425;50.316;8.114;2023-03-21T06:36:00;990;;;8.6;80.6
12722;BME280;6425;50.316;8.114;2023-03-21T06:39:00;990;;;9;79.8
12722;BME280;6425;50.316;8.114;2023-03-21T06:42:00;990;;;9.5;77.6
12722;BME280;6425;50.316;8.114;2023-03-21T06:45:00;990;;;9.8;75.3
12722;BME280;6425;50.316;8.114;2023-03-21T06:48:00;990;;;9.2;76.9
12722;BME280;6425;50.316;8.114;2023-03-21T06:51:00;990;;;9.4;76.5
12722;BME280;6425;50.316;8.114;2023-03-21T06:54:00;990;;;9.3;75.6
12722;BME280;6425;50.316;8.114;2023-03-21T06:57:00;990;;;9.4;76
12722;BME280;6425;50.316;8.114;2023-03-21T06:59:59;990;;;9.6;74.7
12722;BME280;6425;50.316;8.114;2023-03-21T07:03:00;990;;;10.1;72.6
12722;BME280;6425;50.316;8.114;2023-03-21T07:06:02;990;;;10.4;71.1
12722;BME280;6425;50.316;8.114;2023-03-21T07:09:00;990;;;10.4;71.3
12722;BME280;6425;50.316;8.114;2023-03-21T07:12:00;990;;;10.5;71.4
12722;BME280;6425;50.316;8.114;2023-03-21T07:15:00;990;;;10.1;71.9
12722;BME280;6425;50.316;8.114;2023-03-21T07:18:00;990;;;10.3;72.3
12722;BME280;6425;50.316;8.114;2023-03-21T07:21:00;990;;;10;72.8
12722;BME280;6425;50.316;8.114;2023-03-21T07:24:00;990;;;10.4;73.2
12722;BME280;6425;50.316;8.114;2023-03-21T07:27:00;990;;;9.9;73.2
12722;BME280;6425;50.316;8.114;2023-03-21T07:30:00;990;;;9.7;74.1
12722;BME280;6425;50.316;8.114;2023-03-21T07:33:00;990;;;9.5;75.1
12722;BME280;6425;50.316;8.114;2023-03-21T07:36:00;990;;;9.6;74.6
12722;BME280;6425;50.316;8.114;2023-03-21T07:39:00;990;;;9.6;74.5
12722;BME280;6425;50.316;8.114;2023-03-21T07:42:00;990;;;10;72.5
12722;BME280;6425;50.316;8.114;2023-03-21T07:45:00;990;;;9.9;72.4
12722;BME280;6425;50.316;8.114;2023-03-21T07:48:00;990;;;9.9;72.7
12722;BME280;6425;50.316;8.114;2023-03-21T07:51:00;990;;;9.9;73.5
12722;BME280;6425;50.316;8.114;2023-03-21T07:54:00;990;;;9.9;73.2
12722;BME280;6425;50.316;8.114;2023-03-21T07:57:00;990;;;9.8;73.7
12722;BME280;6425;50.316;8.114;2023-03-21T08:00:00;990;;;9.7;73.7
12722;BME280;6425;50.316;8.114;2023-03-21T08:03:00;990;;;9.7;74.1
12722;BME280;6425;50.316;8.114;2023-03-21T08:06:00;990;;;9.8;75.3
12722;BME280;6425;50.316;8.114;2023-03-21T08:09:00;990;;;9.9;74.8
12722;BME280;6425;50.316;8.114;2023-03-21T08:12:00;990;;;9.8;75.8
12722;BME280;6425;50.316;8.114;2023-03-21T08:15:00;990;;;9.8;75.8
12722;BME280;6425;50.316;8.114;2023-03-21T08:18:00;991;;;9.8;75.3
12722;BME280;6425;50.316;8.114;2023-03-21T08:21:00;990;;;10;74.7
12722;BME280;6425;50.316;8.114;2023-03-21T08:24:00;990;;;9.8;73.2
12722;BME280;6425;50.316;8.114;2023-03-21T08:27:00;990;;;10;74.4
12722;BME280;6425;50.316;8.114;2023-03-21T08:30:00;990;;;9.9;74.4
12722;BME280;6425;50.316;8.114;2023-03-21T08:33:00;990;;;10.1;73.8
12722;BME280;6425;50.316;8.114;2023-03-21T08:36:00;990;;;10.1;73.4
12722;BME280;6425;50.316;8.114;2023-03-21T08:39:00;990;;;10.1;73.4
12722;BME280;6425;50.316;8.114;2023-03-21T08:42:00;990;;;10.2;74
12722;BME280;6425;50.316;8.114;2023-03-21T08:45:00;991;;;10.1;74
12722;BME280;6425;50.316;8.114;2023-03-21T08:48:00;990;;;10;75.8
12722;BME280;6425;50.316;8.114;2023-03-21T08:51:00;990;;;10;77.3
12722;BME280;6425;50.316;8.114;2023-03-21T08:54:00;991;;;9.9;76.3
12722;BME280;6425;50.316;8.114;2023-03-21T08:57:00;990;;;9.9;77.7
12722;BME280;6425;50.316;8.114;2023-03-21T09:00:00;990;;;9.8;78.2
12722;BME280;6425;50.316;8.114;2023-03-21T09:03:00;991;;;9.8;79.7
12722;BME280;6425;50.316;8.114;2023-03-21T09:06:00;990;;;9.7;79.2
12722;BME280;6425;50.316;8.114;2023-03-21T09:09:00;990;;;9.7;81.5
12722;BME280;6425;50.316;8.114;2023-03-21T09:12:00;991;;;9.8;82.4
12722;BME280;6425;50.316;8.114;2023-03-21T09:15:00;991;;;9.8;82.4
12722;BME280;6425;50.316;8.114;2023-03-21T09:18:00;991;;;9.8;83.8
12722;BME280;6425;50.316;8.114;2023-03-21T09:21:00;991;;;9.8;85.6
12722;BME280;6425;50.316;8.114;2023-03-21T09:24:00;991;;;9.8;85.8
12722;BME280;6425;50.316;8.114;2023-03-21T09:27:00;991;;;9.7;86.2
12722;BME280;6425;50.316;8.114;2023-03-21T09:30:00;991;;;9.7;85.8
12722;BME280;6425;50.316;8.114;2023-03-21T09:33:00;991;;;9.7;87
12722;BME280;6425;50.316;8.114;2023-03-21T09:36:00;991;;;9.7;88.5
12722;BME280;6425;50.316;8.114;2023-03-21T09:39:00;991;;;9.6;90.6
12722;BME280;6425;50.316;8.114;2023-03-21T09:42:06;991;;;9.5;91.3
12722;BME280;6425;50.316;8.114;2023-03-21T09:45:02;991;;;9.5;91.9
12722;BME280;6425;50.316;8.114;2023-03-21T09:48:00;991;;;9.3;90.3
12722;BME280;6425;50.316;8.114;2023-03-21T09:51:00;991;;;9.4;92.2
12722;BME280;6425;50.316;8.114;2023-03-21T09:54:01;991;;;9.4;92.2
12722;BME280;6425;50.316;8.114;2023-03-21T09:57:01;991;;;9.4;92.5
12722;BME280;6425;50.316;8.114;2023-03-21T10:00:00;991;;;9.5;93
12722;BME280;6425;50.316;8.114;2023-03-21T10:03:00;991;;;9.4;92.3
12722;BME280;6425;50.316;8.114;2023-03-21T10:06:01;991;;;9.5;91.8
12722;BME280;6425;50.316;8.114;2023-03-21T10:09:01;991;;;9.6;92.8
12722;BME280;6425;50.316;8.114;2023-03-21T10:12:01;991;;;10.1;91.8
12722;BME280;6425;50.316;8.114;2023-03-21T10:15:00;991;;;10.7;88.9
12722;BME280;6425;50.316;8.114;2023-03-21T10:18:00;991;;;10.8;85.9
12722;BME280;6425;50.316;8.114;2023-03-21T10:21:00;991;;;10.1;88.2
12722;BME280;6425;50.316;8.114;2023-03-21T10:24:00;991;;;9.6;90.9
12722;BME280;6425;50.316;8.114;2023-03-21T10:27:00;991;;;9.5;91.8
12722;BME280;6425;50.316;8.114;2023-03-21T10:30:00;990;;;9.4;93
12722;BME280;6425;50.316;8.114;2023-03-21T10:33:00;991;;;9.6;94.3
12722;BME280;6425;50.316;8.114;2023-03-21T10:36:00;991;;;9.4;93.8
12722;BME280;6425;50.316;8.114;2023-03-21T10:39:01;991;;;9.1;94.9
12722;BME280;6425;50.316;8.114;2023-03-21T10:42:00;991;;;9.2;95.8
12722;BME280;6425;50.316;8.114;2023-03-21T10:45:00;991;;;9;95.6
12722;BME280;6425;50.316;8.114;2023-03-21T10:48:00;991;;;9;96.7
12722;BME280;6425;50.316;8.114;2023-03-21T10:51:00;991;;;9.1;98.1
12722;BME280;6425;50.316;8.114;2023-03-21T10:54:02;991;;;9.1;97.9
12722;BME280;6425;50.316;8.114;2023-03-21T10:57:01;991;;;9;98.4
12722;BME280;6425;50.316;8.114;2023-03-21T11:00:00;991;;;8.9;99.2
12722;BME280;6425;50.316;8.114;2023-03-21T11:03:00;991;;;8.9;99
12722;BME280;6425;50.316;8.114;2023-03-21T11:06:00;991;;;9;98.8
12722;BME280;6425;50.316;8.114;2023-03-21T11:09:01;991;;;8.9;98.7
12722;BME280;6425;50.316;8.114;2023-03-21T11:12:01;991;;;9.1;100
12722;BME280;6425;50.316;8.114;2023-03-21T11:15:13;991;;;9.4;99.5
12722;BME280;6425;50.316;8.114;2023-03-21T11:18:11;991;;;9.4;99.7
12722;BME280;6425;50.316;8.114;2023-03-21T11:21:01;991;;;9.1;97.8
12722;BME280;6425;50.316;8.114;2023-03-21T11:24:00;990;;;9.1;98.4
12722;BME280;6425;50.316;8.114;2023-03-21T11:27:00;990;;;9.2;100
12722;BME280;6425;50.316;8.114;2023-03-21T11:30:00;990;;;9.5;99.5
12722;BME280;6425;50.316;8.114;2023-03-21T11:33:00;990;;;9.9;98
12722;BME280;6425;50.316;8.114;2023-03-21T11:36:00;990;;;9.3;98.9
12722;BME280;6425;50.316;8.114;2023-03-21T11:39:02;990;;;8.7;99.9
12722;BME280;6425;50.316;8.114;2023-03-21T11:42:00;990;;;8.7;100
12722;BME280;6425;50.316;8.114;2023-03-21T11:45:01;990;;;8.4;100
12722;BME280;6425;50.316;8.114;2023-03-21T11:48:00;990;;;8.7;100
12722;BME280;6425;50.316;8.114;2023-03-21T11:51:01;990;;;8.7;100
12722;BME280;6425;50.316;8.114;2023-03-21T11:54:01;990;;;8.8;100
12722;BME280;6425;50.316;8.114;2023-03-21T11:57:00;990;;;9.3;100
12722;BME280;6425;50.316;8.114;2023-03-21T12:00:06;990;;;10.1;100
12722;BME280;6425;50.316;8.114;2023-03-21T12:03:03;990;;;9.4;99.4
12722;BME280;6425;50.316;8.114;2023-03-21T12:06:01;990;;;9.7;98.3
12722;BME280;6425;50.316;8.114;2023-03-21T12:09:02;990;;;9.6;97.2
12722;BME280;6425;50.316;8.114;2023-03-21T12:12:02;990;;;10.1;97
12722;BME280;6425;50.316;8.114;2023-03-21T12:15:00;990;;;11.4;92.4
12722;BME280;6425;50.316;8.114;2023-03-21T12:18:01;990;;;11.9;88.2
12722;BME280;6425;50.316;8.114;2023-03-21T12:21:00;990;;;12.1;86.5
12722;BME280;6425;50.316;8.114;2023-03-21T12:24:01;990;;;12.1;86.5
12722;BME280;6425;50.316;8.114;2023-03-21T12:27:02;990;;;12.1;86.5
12722;BME280;6425;50.316;8.114;2023-03-21T12:30:04;990;;;11.3;80.6
12722;BME280;6425;50.316;8.114;2023-03-21T12:33:03;990;;;11.1;82.8
12722;BME280;6425;50.316;8.114;2023-03-21T12:36:03;990;;;10.9;83.9
12722;BME280;6425;50.316;8.114;2023-03-21T12:39:02;990;;;10.8;85
12722;BME280;6425;50.316;8.114;2023-03-21T12:42:04;990;;;10.7;84.9
12722;BME280;6425;50.316;8.114;2023-03-21T12:45:00;989;;;10.7;84.6
12722;BME280;6425;50.316;8.114;2023-03-21T12:48:02;989;;;10.7;84.3
12722;BME280;6425;50.316;8.114;2023-03-21T12:51:00;989;;;10.7;83.9
12722;BME280;6425;50.316;8.114;2023-03-21T12:54:02;989;;;10.7;84.3
12722;BME280;6425;50.316;8.114;2023-03-21T12:57:00;989;;;10.7;83.5
12722;BME280;6425;50.316;8.114;2023-03-21T13:00:00;989;;;10.8;84.2
12722;BME280;6425;50.316;8.114;2023-03-21T13:03:01;989;;;10.9;84.8
12722;BME280;6425;50.316;8.114;2023-03-21T13:06:00;989;;;11;84.6
12722;BME280;6425;50.316;8.114;2023-03-21T13:09:01;989;;;11;83.8
12722;BME280;6425;50.316;8.114;2023-03-21T13:12:01;989;;;11.1;84.7
12722;BME280;6425;50.316;8.114;2023-03-21T13:15:04;989;;;11;83.1
12722;BME280;6425;50.316;8.114;2023-03-21T13:18:01;989;;;10.8;85
12722;BME280;6425;50.316;8.114;2023-03-21T13:21:01;989;;;10.9;83.9
12722;BME280;6425;50.316;8.114;2023-03-21T13:24:00;989;;;10.5;84
12722;BME280;6425;50.316;8.114;2023-03-21T13:27:01;989;;;10.5;86.3
12722;BME280;6425;50.316;8.114;2023-03-21T13:30:00;989;;;10.5;86.4
12722;BME280;6425;50.316;8.114;2023-03-21T13:33:04;989;;;10.7;85.4
12722;BME280;6425;50.316;8.114;2023-03-21T13:36:00;989;;;10.9;85.3
12722;BME280;6425;50.316;8.114;2023-03-21T13:39:00;989;;;11.1;85.5
12722;BME280;6425;50.316;8.114;2023-03-21T13:42:01;989;;;11.1;84.6
12722;BME280;6425;50.316;8.114;2023-03-21T13:45:00;989;;;10.7;84
12722;BME280;6425;50.316;8.114;2023-03-21T13:48:02;989;;;10.4;85.9
12722;BME280;6425;50.316;8.114;2023-03-21T13:51:00;989;;;10.1;87.6
12722;BME280;6425;50.316;8.114;2023-03-21T13:54:00;989;;;10.1;88.3
12722;BME280;6425;50.316;8.114;2023-03-21T13:57:03;989;;;10.1;88.1
12722;BME280;6425;50.316;8.114;2023-03-21T14:00:13;989;;;10;87.3
12722;BME280;6425;50.316;8.114;2023-03-21T14:03:04;989;;;9.9;86.9
12722;BME280;6425;50.316;8.114;2023-03-21T14:06:00;989;;;9.4;89.8
12722;BME280;6425;50.316;8.114;2023-03-21T14:09:00;989;;;9.3;91.4
12722;BME280;6425;50.316;8.114;2023-03-21T14:12:00;989;;;9.4;92
12722;BME280;6425;50.316;8.114;2023-03-21T14:15:00;989;;;10.1;90.4
12722;BME280;6425;50.316;8.114;2023-03-21T14:18:00;988;;;10.4;88.8
12722;BME280;6425;50.316;8.114;2023-03-21T14:21:00;989;;;10.2;88.2
12722;BME280;6425;50.316;8.114;2023-03-21T14:24:00;988;;;10.2;88.4
12722;BME280;6425;50.316;8.114;2023-03-21T14:27:00;989;;;10.3;87.9
12722;BME280;6425;50.316;8.114;2023-03-21T14:30:00;988;;;10.6;87.4
12722;BME280;6425;50.316;8.114;2023-03-21T14:33:02;988;;;10.6;86.3
12722;BME280;6425;50.316;8.114;2023-03-21T14:36:02;988;;;10.5;86.5
12722;BME280;6425;50.316;8.114;2023-03-21T14:39:03;988;;;10.8;86.3
12722;BME280;6425;50.316;8.114;2023-03-21T14:42:01;988;;;10.8;86.2
12722;BME280;6425;50.316;8.114;2023-03-21T14:45:05;988;;;10.8;85.9
12722;BME280;6425;50.316;8.114;2023-03-21T14:48:02;988;;;10.8;86.4
12722;BME280;6425;50.316;8.114;2023-03-21T14:51:00;988;;;10.5;86.7
12722;BME280;6425;50.316;8.114;2023-03-21T14:54:00;988;;;10.6;86.5
12722;BME280;6425;50.316;8.114;2023-03-21T14:57:00;988;;;10.7;86
12722;BME280;6425;50.316;8.114;2023-03-21T15:00:00;988;;;10.9;85.4
12722;BME280;6425;50.316;8.114;2023-03-21T15:03:00;988;;;11.2;84.8
12722;BME280;6425;50.316;8.114;2023-03-21T15:06:00;988;;;10.6;84.8
12722;BME280;6425;50.316;8.114;2023-03-21T15:09:00;988;;;10.9;84.8
12722;BME280;6425;50.316;8.114;2023-03-21T15:12:00;988;;;11.2;83.8
12722;BME280;6425;50.316;8.114;2023-03-21T15:15:00;988;;;11.3;82.7
12722;BME280;6425;50.316;8.114;2023-03-21T15:18:02;988;;;11.1;83.6
12722;BME280;6425;50.316;8.114;2023-03-21T15:21:00;988;;;10.6;85.3
12722;BME280;6425;50.316;8.114;2023-03-21T15:24:01;988;;;10.4;87.8
12722;BME280;6425;50.316;8.114;2023-03-21T15:27:02;988;;;10.6;86.9
12722;BME280;6425;50.316;8.114;2023-03-21T15:30:00;988;;;10.5;86.3
12722;BME280;6425;50.316;8.114;2023-03-21T15:33:04;988;;;10.5;86
12722;BME280;6425;50.316;8.114;2023-03-21T15:36:00;988;;;10.6;86.3
12722;BME280;6425;50.316;8.114;2023-03-21T15:39:00;988;;;10.4;87
12722;BME280;6425;50.316;8.114;2023-03-21T15:42:01;988;;;10.4;87.6
12722;BME280;6425;50.316;8.114;2023-03-21T15:45:00;988;;;10.3;87.7
12722;BME280;6425;50.316;8.114;2023-03-21T15:48:00;988;;;10.4;87.9
12722;BME280;6425;50.316;8.114;2023-03-21T15:51:00;988;;;10.3;87.6
12722;BME280;6425;50.316;8.114;2023-03-21T15:54:00;988;;;10.6;87.5
12722;BME280;6425;50.316;8.114;2023-03-21T15:57:00;988;;;10.7;86
12722;BME280;6425;50.316;8.114;2023-03-21T16:00:01;988;;;10.7;85.6
12722;BME280;6425;50.316;8.114;2023-03-21T16:03:02;988;;;10.9;84.7
12722;BME280;6425;50.316;8.114;2023-03-21T16:06:02;988;;;10.4;86.1
12722;BME280;6425;50.316;8.114;2023-03-21T16:09:04;988;;;10.8;86.1
12722;BME280;6425;50.316;8.114;2023-03-21T16:12:00;988;;;10.9;84.9
12722;BME280;6425;50.316;8.114;2023-03-21T16:15:00;988;;;11.1;83.5
12722;BME280;6425;50.316;8.114;2023-03-21T16:18:00;988;;;10.8;82.8
12722;BME280;6425;50.316;8.114;2023-03-21T16:21:00;988;;;10.8;83.9
12722;BME280;6425;50.316;8.114;2023-03-21T16:24:00;988;;;10.9;83
12722;BME280;6425;50.316;8.114;2023-03-21T16:27:00;988;;;10.5;85
12722;BME280;6425;50.316;8.114;2023-03-21T16:30:00;988;;;10.7;84.2
12722;BME280;6425;50.316;8.114;2023-03-21T16:33:00;987;;;10.9;84
12722;BME280;6425;50.316;8.114;2023-03-21T16:36:00;987;;;10.9;83.3
12722;BME280;6425;50.316;8.114;2023-03-21T16:39:00;987;;;10.8;83.3
12722;BME280;6425;50.316;8.114;2023-03-21T16:42:00;987;;;10.7;83.3
12722;BME280;6425;50.316;8.114;2023-03-21T16:45:00;987;;;10.5;83.8
12722;BME280;6425;50.316;8.114;2023-03-21T16:48:00;987;;;10.8;83.8
12722;BME280;6425;50.316;8.114;2023-03-21T16:51:00;987;;;10.6;83.1
12722;BME280;6425;50.316;8.114;2023-03-21T16:54:00;987;;;10.5;83.7
12722;BME280;6425;50.316;8.114;2023-03-21T16:57:00;987;;;10.7;83.5
12722;BME280;6425;50.316;8.114;2023-03-21T17:00:00;987;;;10.5;82.9
12722;BME280;6425;50.316;8.114;2023-03-21T17:03:01;987;;;10.9;83.3
12722;BME280;6425;50.316;8.114;2023-03-21T17:06:00;987;;;10.8;83.2
12722;BME280;6425;50.316;8.114;2023-03-21T17:09:00;987;;;10.9;82.7
12722;BME280;6425;50.316;8.114;2023-03-21T17:12:00;987;;;11.2;81.6
12722;BME280;6425;50.316;8.114;2023-03-21T17:15:00;987;;;11.3;80.7
12722;BME280;6425;50.316;8.114;2023-03-21T17:18:00;987;;;11.4;79.5
12722;BME280;6425;50.316;8.114;2023-03-21T17:21:00;987;;;11.1;80.8
12722;BME280;6425;50.316;8.114;2023-03-21T17:24:00;987;;;10.9;81.2
12722;BME280;6425;50.316;8.114;2023-03-21T17:27:00;987;;;10.9;81.5
12722;BME280;6425;50.316;8.114;2023-03-21T17:30:00;987;;;11.1;80.9
12722;BME280;6425;50.316;8.114;2023-03-21T17:33:00;987;;;10.9;81.1
12722;BME280;6425;50.316;8.114;2023-03-21T17:36:00;987;;;10.9;81.6
12722;BME280;6425;50.316;8.114;2023-03-21T17:39:00;987;;;10.9;81.6
12722;BME280;6425;50.316;8.114;2023-03-21T17:42:00;988;;;10.9;81.3
12722;BME280;6425;50.316;8.114;2023-03-21T17:45:00;988;;;10.8;81.8
12722;BME280;6425;50.316;8.114;2023-03-21T17:48:00;988;;;10.9;82
12722;BME280;6425;50.316;8.114;2023-03-21T17:51:00;987;;;11;81.5
12722;BME280;6425;50.316;8.114;2023-03-21T17:54:00;988;;;10.9;81.7
12722;BME280;6425;50.316;8.114;2023-03-21T17:57:00;988;;;10.9;81.7
12722;BME280;6425;50.316;8.114;2023-03-21T18:00:00;988;;;11.1;81.1
12722;BME280;6425;50.316;8.114;2023-03-21T18:03:00;987;;;10.9;81.2